Salt Lake City, Utah
Traffic Map
Current Weather Conditions
Salt Lake City, Utah
Clear
Clear
51°
Feels Like: 51°
Wind Chill: 51° Ceiling: Unl
Heat Index: 51° Visibility: 10mi
Dew Point: 39° Wind: 9mph
Humidity: 63% Direction: 150° (SSE)
Pressure: 30.02in Gusts: 0mph
Raw Report DataKSLC 200853Z 15008KT 10SM CLR 11/04 A3002 RMK AO2 SLP130 T01060039 56005
Traffic Incident Summary
Active as of:
Severity:
Category:
InformationThere was an issue retrieving the traffic information for this location. Please try a different location or try again shortly.
Advertisements
Track Severe Weather on mobile